Terminal Aerodrome Forecast
Issued by NWS

Home | Current Version | Previous Version | Text Only | Print | Product List | Glossary On
Versions: 1 2 3 4 5 6 7 8 9 10 11 12 13
000
FTUS43 KBIS 222300
TAFDIK
TAF
KDIK 222320Z 2300/2324 24011KT P6SM BKN080 OVC150
     FM230900 27021G28KT 6SM -SN BLSN SCT020 OVC030
     FM231300 28025G38KT 3SM -SN BLSN OVC012=

USA.gov is the U.S. government's official web portal to all federal, state and local government web resources and services.